Flugplatz Biberach a.d. Riß

Für EDMB sind keine METAR/TAF Berichte vorhanden.
Es werden die Flugwettermeldungen vom Flugplatz Laupheim Airport in 16 km Entfernung angezeigt.

Bericht für ETHL

vom 17.07. um 23:20 UTC

kein Wind

Sichtweite 10 km oder mehr

gering bewölkt in 7000 ft

aufgebrochene Bewölkung in 24000 ft

Temperatur 15.0°C

Taupunkt 10.0°C

Luftfeuchtigkeit 72%

Luftdruck 1014 hPa

ETHL 172320Z 00000KT 9999 FEW070 BKN240 15/10 Q1014 BLU+
Keine Prognose (TAF) verfügbar.
Impressum